Time;durP1;ratioP1;P1;durP2;ratioP2;P2;SDS_P1;SDS_P2;PMS_P1;PMS_P2;Temp;Humidity;BMP_temperature;BMP_pressure;BME280_temperature;BME280_humidity;BME280_pressure;Samples;Min_cycle;Max_cycle;Signal;HPM_P1;HPM_P2
2022/08/23 00:01:06;;;;;;;6.80;6.23;;;16.40;99.90;;;;;;5031869;28;20626;-54
2022/08/23 00:03:33;;;;;;;7.90;7.23;;;16.30;99.90;;;;;;5033950;28;20203;-54
2022/08/23 00:06:00;;;;;;;6.57;6.17;;;16.30;99.90;;;;;;5034066;28;20223;-54
2022/08/23 00:08:28;;;;;;;6.00;5.63;;;16.30;99.90;;;;;;5034163;28;20614;-54
2022/08/23 00:10:56;;;;;;;6.47;6.07;;;16.30;99.90;;;;;;5034235;28;20296;-54
2022/08/23 00:13:24;;;;;;;6.97;6.50;;;16.30;99.90;;;;;;5031852;28;20273;-53
2022/08/23 00:15:52;;;;;;;6.90;6.40;;;16.20;99.90;;;;;;5032707;28;20246;-54
2022/08/23 00:18:19;;;;;;;6.53;6.00;;;16.20;99.90;;;;;;5025216;28;20248;-53
2022/08/23 00:20:46;;;;;;;6.97;6.47;;;16.20;99.90;;;;;;5033952;28;20282;-54
2022/08/23 00:23:14;;;;;;;5.90;5.60;;;16.10;99.90;;;;;;5033273;28;20680;-54
2022/08/23 00:25:41;;;;;;;5.93;5.53;;;16.10;99.90;;;;;;5031860;28;20222;-54
2022/08/23 00:28:08;;;;;;;7.17;6.67;;;16.10;99.90;;;;;;5033609;28;20202;-53
2022/08/23 00:30:37;;;;;;;7.53;5.60;;;16.20;99.90;;;;;;5033835;28;20256;-53
2022/08/23 00:33:08;;;;;;;6.43;5.93;;;16.20;99.90;;;;;;5028419;28;20839;-54
2022/08/23 00:35:36;;;;;;;6.37;5.93;;;16.20;99.90;;;;;;5030057;28;20222;-54
2022/08/23 00:38:06;;;;;;;7.20;6.80;;;16.20;99.90;;;;;;5032614;28;20195;-53
2022/08/23 00:40:33;;;;;;;7.57;7.03;;;16.20;99.90;;;;;;5032423;28;20728;-54
2022/08/23 00:48:45;;;;;;;6.83;6.43;;;16.10;99.90;;;;;;5025139;28;20218;-53
2022/08/23 00:51:16;;;;;;;7.40;6.80;;;16.10;99.90;;;;;;5033287;28;20207;-54
2022/08/23 00:53:47;;;;;;;8.17;7.47;;;16.20;99.90;;;;;;5033149;28;20281;-53
2022/08/23 00:56:18;;;;;;;6.97;6.57;;;16.20;99.90;;;;;;5033259;28;20264;-54
2022/08/23 00:58:45;;;;;;;7.03;6.53;;;16.20;99.90;;;;;;5033203;28;20210;-54
2022/08/23 01:01:16;;;;;;;6.77;6.33;;;16.10;99.90;;;;;;5024110;28;20736;-54
2022/08/23 01:03:46;;;;;;;6.40;6.03;;;16.00;99.90;;;;;;5032932;28;20260;-54
2022/08/23 01:06:16;;;;;;;7.50;6.80;;;15.90;99.90;;;;;;5027213;28;20664;-53
2022/08/23 01:08:46;;;;;;;7.30;6.63;;;15.80;99.90;;;;;;5030379;28;20198;-54
2022/08/23 01:11:17;;;;;;;6.23;5.83;;;15.80;99.90;;;;;;5023918;28;20206;-54
2022/08/23 01:13:48;;;;;;;7.00;6.60;;;15.80;99.90;;;;;;5032831;28;20248;-53
2022/08/23 01:16:21;;;;;;;8.67;7.97;;;15.80;99.90;;;;;;5032961;28;20245;-54
2022/08/23 01:18:49;;;;;;;7.30;6.87;;;15.90;99.90;;;;;;5032693;28;20203;-54
2022/08/23 01:21:22;;;;;;;8.00;7.40;;;15.90;99.90;;;;;;5031968;28;20213;-54
2022/08/23 01:23:54;;;;;;;8.00;7.43;;;15.90;99.90;;;;;;5029744;28;20206;-54
2022/08/23 01:26:23;;;;;;;7.40;6.70;;;15.80;99.90;;;;;;5032762;28;20222;-54
2022/08/23 01:28:51;;;;;;;7.07;6.57;;;15.80;99.90;;;;;;5032560;28;20298;-54
2022/08/23 01:31:19;;;;;;;7.83;7.33;;;15.70;99.90;;;;;;5032622;28;20285;-54
2022/08/23 01:33:50;;;;;;;6.87;6.43;;;15.70;99.90;;;;;;5022576;28;20251;-54
2022/08/23 01:36:17;;;;;;;7.33;6.93;;;15.70;99.90;;;;;;5023396;28;20219;-54
2022/08/23 01:38:45;;;;;;;7.93;7.33;;;15.70;99.90;;;;;;5031616;28;20203;-54
2022/08/23 01:41:13;;;;;;;7.40;6.90;;;15.70;99.90;;;;;;5032443;28;20218;-54
2022/08/23 01:43:40;;;;;;;7.10;6.50;;;15.70;99.90;;;;;;5029481;28;20191;-53
2022/08/23 01:46:09;;;;;;;6.50;6.10;;;15.70;99.90;;;;;;5032034;28;20226;-54
2022/08/23 01:48:36;;;;;;;7.17;6.63;;;15.70;99.90;;;;;;5022697;28;20222;-54
2022/08/23 01:51:04;;;;;;;7.20;6.43;;;15.70;99.90;;;;;;5032120;28;20261;-55
2022/08/23 01:53:31;;;;;;;6.37;5.77;;;15.70;99.90;;;;;;5031704;28;20218;-54
2022/08/23 01:56:00;;;;;;;7.13;6.50;;;15.70;99.90;;;;;;5028427;28;20600;-54
2022/08/23 01:58:30;;;;;;;7.50;7.00;;;15.50;99.90;;;;;;5027379;28;20191;-54
2022/08/23 02:00:57;;;;;;;6.40;6.00;;;15.50;99.90;;;;;;5031340;28;20691;-53
2022/08/23 02:03:25;;;;;;;7.00;6.50;;;15.40;99.90;;;;;;5031681;28;20208;-54
2022/08/23 02:05:52;;;;;;;6.70;6.30;;;15.40;99.90;;;;;;5032133;28;20672;-54
2022/08/23 02:11:09;;;;;;;7.10;6.47;;;15.30;99.90;;;;;;5031966;28;20201;-54
2022/08/23 02:13:37;;;;;;;6.87;6.47;;;15.30;99.90;;;;;;5029599;28;20218;-53
2022/08/23 02:16:05;;;;;;;6.53;6.13;;;15.30;99.90;;;;;;5021673;28;20276;-54
2022/08/23 02:18:32;;;;;;;6.40;6.00;;;15.30;99.90;;;;;;5025048;28;20201;-53
2022/08/23 02:20:59;;;;;;;7.00;6.37;;;15.30;99.90;;;;;;5023602;28;20217;-54
2022/08/23 02:23:27;;;;;;;6.90;6.33;;;15.30;99.90;;;;;;5031539;28;20230;-54
2022/08/23 02:25:54;;;;;;;8.37;6.93;;;15.30;99.90;;;;;;5030111;28;20226;-54
2022/08/23 02:28:23;;;;;;;6.63;6.17;;;15.30;99.90;;;;;;5031725;28;20260;-54
2022/08/23 02:30:52;;;;;;;6.30;5.90;;;15.30;99.90;;;;;;5026066;28;20252;-53
2022/08/23 02:33:19;;;;;;;6.77;6.33;;;15.30;99.90;;;;;;5025527;28;20701;-53
2022/08/23 02:35:46;;;;;;;7.27;6.80;;;15.30;99.90;;;;;;5031553;28;20364;-54
2022/08/23 02:38:14;;;;;;;6.00;5.60;;;15.30;99.90;;;;;;5031619;28;20202;-54
2022/08/23 02:40:42;;;;;;;6.37;5.97;;;15.20;99.90;;;;;;5031041;28;20225;-54
2022/08/23 02:43:10;;;;;;;7.17;6.77;;;15.20;99.90;;;;;;5031292;28;20652;-54
2022/08/23 02:45:37;;;;;;;5.70;5.37;;;15.20;99.90;;;;;;5032123;28;20245;-53
2022/08/23 02:48:09;;;;;;;6.83;6.23;;;15.30;99.90;;;;;;5026404;28;20202;-54
2022/08/23 02:50:37;;;;;;;6.07;5.67;;;15.30;99.90;;;;;;5035510;28;20229;-54
2022/08/23 02:53:07;;;;;;;6.50;6.00;;;15.40;99.90;;;;;;5034439;28;20226;-54
2022/08/23 02:55:34;;;;;;;7.63;7.13;;;15.40;99.90;;;;;;5027204;28;20226;-54
2022/08/23 02:58:04;;;;;;;7.20;6.60;;;15.30;99.90;;;;;;5019713;28;20203;-53
2022/08/23 03:00:32;;;;;;;9.30;8.40;;;15.20;99.90;;;;;;5034544;28;20688;-53
2022/08/23 03:02:59;;;;;;;7.60;6.73;;;15.20;99.90;;;;;;5026820;28;20623;-54
2022/08/23 03:05:27;;;;;;;6.80;6.27;;;15.10;99.90;;;;;;5032948;28;20226;-54
2022/08/23 03:07:54;;;;;;;6.17;5.60;;;15.10;99.90;;;;;;5023099;28;20206;-54
2022/08/23 03:10:21;;;;;;;6.93;6.53;;;15.00;99.90;;;;;;5031558;28;20202;-54
2022/08/23 03:12:49;;;;;;;6.40;6.00;;;15.00;99.90;;;;;;5034027;28;20728;-54
2022/08/23 03:15:16;;;;;;;7.60;7.10;;;15.00;99.90;;;;;;5018914;28;20313;-53
2022/08/23 03:17:43;;;;;;;7.70;7.20;;;15.00;99.90;;;;;;5034973;28;20264;-54
2022/08/23 03:20:11;;;;;;;8.00;7.37;;;14.90;99.90;;;;;;5034113;28;20199;-54
2022/08/23 03:22:39;;;;;;;8.03;7.43;;;14.90;99.90;;;;;;5032864;28;20649;-54
2022/08/23 03:25:07;;;;;;;7.53;7.00;;;14.90;99.90;;;;;;5026222;28;20704;-54
2022/08/23 03:27:35;;;;;;;6.80;6.20;;;14.90;99.90;;;;;;5034014;28;20213;-54
2022/08/23 03:30:02;;;;;;;7.20;6.70;;;14.90;99.90;;;;;;5033808;28;20210;-53
2022/08/23 03:32:29;;;;;;;6.77;6.27;;;14.80;99.90;;;;;;5033772;28;20230;-54
2022/08/23 03:34:56;;;;;;;7.93;7.23;;;14.80;99.90;;;;;;5033730;28;20222;-53
2022/08/23 03:37:23;;;;;;;9.07;8.20;;;14.80;99.90;;;;;;5034041;28;20290;-53
2022/08/23 03:39:52;;;;;;;7.00;6.60;;;14.70;99.90;;;;;;5024567;28;20734;-53
2022/08/23 03:42:19;;;;;;;7.30;6.80;;;14.70;99.90;;;;;;5033387;28;20256;-54
2022/08/23 03:44:47;;;;;;;7.00;6.60;;;14.70;99.90;;;;;;5033765;28;20198;-53
2022/08/23 03:47:14;;;;;;;7.10;6.67;;;14.70;99.90;;;;;;5033856;28;20214;-53
2022/08/23 03:49:41;;;;;;;7.63;7.03;;;14.70;99.90;;;;;;5034013;28;20741;-54
2022/08/23 03:52:10;;;;;;;6.57;6.17;;;14.70;99.90;;;;;;5034250;28;20233;-53
2022/08/23 03:54:37;;;;;;;6.50;6.10;;;14.70;99.90;;;;;;5031939;28;20222;-53
2022/08/23 03:57:09;;;;;;;6.90;6.30;;;14.70;99.90;;;;;;5027286;28;20260;-54
2022/08/23 03:59:39;;;;;;;6.07;5.57;;;14.70;99.90;;;;;;5027066;28;20293;-54
2022/08/23 04:02:06;;;;;;;6.03;5.73;;;14.70;99.90;;;;;;5031415;28;20252;-53
2022/08/23 04:04:33;;;;;;;6.03;5.63;;;14.70;99.90;;;;;;5023815;28;20195;-54
2022/08/23 04:07:01;;;;;;;5.90;5.60;;;14.80;99.90;;;;;;5013537;28;20222;-53
2022/08/23 04:09:28;;;;;;;6.63;5.77;;;14.80;99.90;;;;;;5013392;28;20241;-53
2022/08/23 04:11:56;;;;;;;6.43;5.87;;;14.90;99.90;;;;;;5013548;28;20230;-53
2022/08/23 04:14:25;;;;;;;6.90;6.30;;;14.90;99.90;;;;;;5013039;28;20219;-53
2022/08/23 04:16:52;;;;;;;6.33;5.97;;;14.90;99.90;;;;;;5022994;28;20233;-53
2022/08/23 04:19:19;;;;;;;6.40;6.00;;;14.90;99.90;;;;;;5031881;28;20392;-53
2022/08/23 04:21:50;;;;;;;6.47;5.83;;;14.90;99.90;;;;;;5032186;28;20203;-53
2022/08/23 04:24:18;;;;;;;6.23;5.73;;;14.90;99.90;;;;;;5025332;28;20203;-53
2022/08/23 04:26:45;;;;;;;7.27;6.70;;;14.90;99.90;;;;;;5013519;28;20253;-53
2022/08/23 04:29:15;;;;;;;7.13;6.37;;;14.90;99.90;;;;;;5013393;28;20195;-53
2022/08/23 04:31:45;;;;;;;7.13;6.50;;;14.90;99.90;;;;;;5018889;28;20294;-53
2022/08/23 04:34:12;;;;;;;9.83;7.13;;;14.80;99.90;;;;;;5026517;28;20302;-53
2022/08/23 04:36:41;;;;;;;7.73;7.13;;;14.80;99.90;;;;;;5024819;28;20223;-53
2022/08/23 04:39:09;;;;;;;8.07;7.43;;;14.80;99.90;;;;;;5013649;28;20210;-54
2022/08/23 04:44:21;;;;;;;7.03;6.53;;;14.80;99.90;;;;;;5012912;28;20362;-53
2022/08/23 04:46:49;;;;;;;8.10;7.50;;;14.70;99.90;;;;;;5013110;28;20223;-54
2022/08/23 04:49:16;;;;;;;8.40;7.73;;;14.70;99.90;;;;;;5019828;28;20194;-54
2022/08/23 04:51:44;;;;;;;8.33;7.70;;;14.70;99.90;;;;;;5014986;28;20265;-53
2022/08/23 04:54:11;;;;;;;6.83;6.43;;;14.70;99.90;;;;;;5013142;28;20718;-53
2022/08/23 04:56:38;;;;;;;7.80;7.20;;;14.70;99.90;;;;;;5012936;28;20216;-53
2022/08/23 04:59:06;;;;;;;7.63;7.10;;;14.70;99.90;;;;;;5012667;28;20230;-53
2022/08/23 05:01:33;;;;;;;7.47;6.93;;;14.80;99.90;;;;;;5012873;28;20199;-53
2022/08/23 05:04:02;;;;;;;7.97;7.47;;;14.80;99.90;;;;;;5012522;28;20199;-53
2022/08/23 05:06:30;;;;;;;8.23;7.43;;;14.90;99.90;;;;;;5016824;28;20858;-54
2022/08/23 05:08:57;;;;;;;6.97;6.47;;;14.90;99.90;;;;;;5011989;28;20199;-54
2022/08/23 05:11:24;;;;;;;8.33;7.67;;;14.90;99.90;;;;;;5012580;28;20573;-54
2022/08/23 05:13:51;;;;;;;9.53;8.73;;;15.00;99.90;;;;;;5012197;28;20229;-53
2022/08/23 05:16:18;;;;;;;11.33;10.33;;;15.10;99.90;;;;;;5012248;28;20238;-53
2022/08/23 05:18:46;;;;;;;14.00;11.83;;;15.20;99.90;;;;;;5012382;28;21326;-53
2022/08/23 05:21:19;;;;;;;13.43;12.10;;;15.30;99.90;;;;;;5015459;28;20226;-53
2022/08/23 05:23:46;;;;;;;9.50;8.57;;;15.40;99.90;;;;;;5016573;28;20759;-54
2022/08/23 05:26:14;;;;;;;14.53;8.70;;;15.50;99.90;;;;;;5014435;28;20680;-53
2022/08/23 05:28:43;;;;;;;9.30;7.70;;;15.70;99.90;;;;;;5022994;28;20277;-54
2022/08/23 05:31:13;;;;;;;8.63;7.97;;;16.40;99.90;;;;;;5018989;28;20269;-53
2022/08/23 05:33:41;;;;;;;8.13;7.43;;;17.40;99.90;;;;;;5012060;28;20289;-53
2022/08/23 05:36:10;;;;;;;8.90;7.93;;;18.10;99.90;;;;;;5018822;28;20226;-53
2022/08/23 05:38:38;;;;;;;9.20;8.30;;;18.80;99.90;;;;;;5023557;28;20233;-53
2022/08/23 05:41:06;;;;;;;8.43;7.67;;;19.60;99.90;;;;;;5013847;28;20259;-54
2022/08/23 05:43:33;;;;;;;6.93;6.33;;;20.00;99.90;;;;;;5022211;28;20194;-53
2022/08/23 05:46:02;;;;;;;6.77;6.37;;;20.50;99.90;;;;;;5028635;28;20258;-54
2022/08/23 05:48:29;;;;;;;6.03;5.73;;;21.00;99.90;;;;;;5021347;28;20246;-54
2022/08/23 05:50:56;;;;;;;6.70;6.20;;;21.60;99.90;;;;;;5012317;28;20625;-54
2022/08/23 05:53:23;;;;;;;7.67;7.10;;;22.30;99.90;;;;;;5028895;28;20253;-53
2022/08/23 05:55:51;;;;;;;7.07;6.43;;;22.80;99.90;;;;;;5011516;28;20273;-54
2022/08/23 05:58:18;;;;;;;6.23;5.67;;;23.00;99.90;;;;;;5011446;28;20195;-53
2022/08/23 06:00:45;;;;;;;7.43;6.93;;;23.30;99.90;;;;;;5029088;28;20214;-54
2022/08/23 06:03:12;;;;;;;7.77;7.07;;;23.60;99.90;;;;;;5031560;28;20197;-53
2022/08/23 06:05:41;;;;;;;5.87;5.47;;;23.80;99.90;;;;;;5024123;28;20226;-54
2022/08/23 06:08:10;;;;;;;6.67;6.13;;;23.90;99.90;;;;;;5030092;28;20201;-54
2022/08/23 06:10:37;;;;;;;5.53;5.33;;;24.10;99.90;;;;;;5018943;28;20203;-54
2022/08/23 06:13:08;;;;;;;5.73;5.43;;;24.80;99.90;;;;;;5020252;28;20226;-54
2022/08/23 06:15:35;;;;;;;6.23;5.83;;;25.20;99.90;;;;;;5018424;28;20230;-55
2022/08/23 06:18:05;;;;;;;5.00;4.70;;;25.50;99.90;;;;;;5017293;28;20209;-54
2022/08/23 06:20:32;;;;;;;5.23;4.87;;;26.10;99.90;;;;;;5015737;28;20206;-54
2022/08/23 06:23:00;;;;;;;5.80;5.50;;;26.50;99.90;;;;;;5025538;28;20241;-54
2022/08/23 06:25:27;;;;;;;4.77;4.47;;;27.00;99.90;;;;;;5019241;28;20242;-54
2022/08/23 06:27:54;;;;;;;4.83;4.43;;;27.00;99.90;;;;;;5027086;28;20210;-54
2022/08/23 06:30:23;;;;;;;4.83;4.53;;;27.40;99.90;;;;;;5016326;28;20206;-54
2022/08/23 06:32:52;;;;;;;5.93;5.63;;;27.50;99.90;;;;;;5013092;28;20203;-54
2022/08/23 06:35:19;;;;;;;4.53;4.32;;;27.40;99.90;;;;;;5018545;28;20299;-54
2022/08/23 06:37:46;;;;;;;7.35;5.13;;;27.80;99.90;;;;;;5019652;28;20199;-53
2022/08/23 06:40:13;;;;;;;4.22;4.03;;;28.20;99.90;;;;;;5011170;28;20195;-54
2022/08/23 06:42:40;;;;;;;5.05;4.72;;;28.70;99.90;;;;;;5011499;28;20203;-54
2022/08/23 06:45:08;;;;;;;5.18;4.85;;;28.80;99.90;;;;;;5021011;28;20230;-54
2022/08/23 06:47:37;;;;;;;5.05;4.15;;;29.00;99.90;;;;;;5029552;28;20202;-54
2022/08/23 06:50:04;;;;;;;3.72;3.63;;;29.00;99.90;;;;;;5029203;28;20870;-54
2022/08/23 06:52:31;;;;;;;4.00;3.85;;;29.20;99.90;;;;;;5025839;28;20203;-53
2022/08/23 06:54:58;;;;;;;4.30;4.15;;;29.50;99.90;;;;;;5010475;28;20257;-54
2022/08/23 06:57:25;;;;;;;4.07;3.97;;;29.80;99.90;;;;;;5011845;28;20257;-54
2022/08/23 06:59:52;;;;;;;4.20;4.10;;;29.90;99.90;;;;;;5012681;28;20258;-54
2022/08/23 07:02:19;;;;;;;4.50;4.22;;;30.00;99.90;;;;;;5014052;28;20277;-54
2022/08/23 07:04:52;;;;;;;4.47;4.28;;;30.00;99.90;;;;;;5026290;28;20210;-54
2022/08/23 07:07:19;;;;;;;4.00;3.80;;;30.40;99.90;;;;;;5023491;28;20464;-55
2022/08/23 07:09:46;;;;;;;5.05;4.47;;;30.30;99.90;;;;;;5021948;28;20207;-54
2022/08/23 07:12:13;;;;;;;3.83;3.60;;;30.40;99.70;;;;;;5030622;28;20705;-54
2022/08/23 07:14:41;;;;;;;4.10;3.75;;;30.00;98.80;;;;;;5028456;28;20249;-54
2022/08/23 07:17:10;;;;;;;5.25;4.03;;;30.40;98.60;;;;;;5030833;28;20206;-54
2022/08/23 07:19:36;;;;;;;4.20;4.00;;;30.50;99.00;;;;;;5030741;28;20616;-54
2022/08/23 07:22:06;;;;;;;4.22;3.92;;;30.90;97.30;;;;;;5030806;28;20619;-54
2022/08/23 07:24:33;;;;;;;4.35;4.25;;;30.50;97.60;;;;;;5029248;28;20683;-54
2022/08/23 07:27:05;;;;;;;3.72;3.58;;;30.60;98.60;;;;;;5030789;28;20275;-54
2022/08/23 07:29:32;;;;;;;3.78;3.58;;;30.90;97.60;;;;;;5031020;28;20218;-54
2022/08/23 07:31:59;;;;;;;3.03;2.83;;;31.40;96.90;;;;;;5029003;28;20206;-54
2022/08/23 07:34:26;;;;;;;3.78;3.67;;;31.40;96.60;;;;;;5032505;28;20269;-54
2022/08/23 07:36:54;;;;;;;4.63;4.25;;;31.60;96.30;;;;;;5032866;28;20761;-54
2022/08/23 07:39:25;;;;;;;6.18;3.85;;;31.70;96.40;;;;;;5033989;28;20195;-54
2022/08/23 07:41:52;;;;;;;4.18;3.97;;;31.80;95.30;;;;;;5032693;28;20206;-54
2022/08/23 07:44:19;;;;;;;4.55;4.28;;;31.70;95.10;;;;;;5033992;28;20201;-54
2022/08/23 07:46:47;;;;;;;3.65;3.35;;;31.20;95.50;;;;;;5034192;28;20226;-54
2022/08/23 07:49:15;;;;;;;3.80;3.63;;;31.30;95.50;;;;;;5033313;28;20221;-54
2022/08/23 07:51:46;;;;;;;4.55;4.18;;;31.30;94.70;;;;;;5033726;28;20210;-54
2022/08/23 07:54:13;;;;;;;4.70;3.63;;;31.40;94.40;;;;;;5033813;28;20296;-54
2022/08/23 07:56:42;;;;;;;3.58;3.50;;;31.50;95.60;;;;;;5033783;28;20272;-53
2022/08/23 07:59:10;;;;;;;4.00;3.80;;;31.10;94.00;;;;;;5033798;28;20203;-54
2022/08/23 08:01:38;;;;;;;4.78;4.47;;;30.60;94.80;;;;;;5033902;28;20672;-53
2022/08/23 08:04:07;;;;;;;4.53;4.32;;;30.60;95.30;;;;;;5033344;28;20203;-54
2022/08/23 08:06:38;;;;;;;4.63;4.32;;;31.10;96.70;;;;;;5032927;28;20242;-54
2022/08/23 08:09:05;;;;;;;4.15;3.95;;;31.10;96.10;;;;;;5033051;28;20198;-54
2022/08/23 08:11:34;;;;;;;4.13;3.75;;;31.20;94.40;;;;;;5032101;28;20226;-54
2022/08/23 08:14:06;;;;;;;4.40;4.20;;;31.50;94.00;;;;;;5023349;28;20269;-54
2022/08/23 08:16:35;;;;;;;3.67;3.58;;;31.40;94.10;;;;;;5032530;28;20230;-54
2022/08/23 08:19:06;;;;;;;4.60;4.22;;;31.30;93.80;;;;;;5024644;28;20202;-54
2022/08/23 08:21:34;;;;;;;3.72;3.63;;;31.30;96.00;;;;;;5032746;28;20409;-54
2022/08/23 08:24:01;;;;;;;4.65;4.03;;;31.30;95.50;;;;;;5032165;28;20199;-54
2022/08/23 08:26:28;;;;;;;4.53;4.28;;;31.90;94.60;;;;;;5032615;28;20305;-54
2022/08/23 08:28:56;;;;;;;3.92;3.72;;;31.70;95.70;;;;;;5031457;28;20265;-54
2022/08/23 08:31:25;;;;;;;4.13;3.90;;;31.70;93.90;;;;;;5032735;28;20198;-55
2022/08/23 08:33:52;;;;;;;3.67;3.55;;;31.80;93.30;;;;;;5031364;28;20230;-54
2022/08/23 08:36:31;;;;;;;3.70;3.60;;;32.00;92.80;;;;;;5033149;28;20234;-54
2022/08/23 08:38:58;;;;;;;4.35;4.15;;;31.90;94.50;;;;;;5030504;28;20726;-54
2022/08/23 08:41:36;;;;;;;4.25;3.97;;;31.90;94.20;;;;;;5031894;28;20248;-54
2022/08/23 08:44:14;;;;;;;3.60;3.47;;;31.50;94.70;;;;;;5023680;28;20237;-54
2022/08/23 08:46:45;;;;;;;3.83;3.30;;;32.20;91.80;;;;;;5030294;28;20230;-54
2022/08/23 08:49:18;;;;;;;4.80;4.40;;;32.10;92.90;;;;;;5025851;28;20227;-55
2022/08/23 08:51:50;;;;;;;4.13;4.03;;;31.90;94.10;;;;;;5030448;28;20206;-54
2022/08/23 08:54:21;;;;;;;4.53;4.30;;;31.80;94.80;;;;;;5030872;28;20230;-54
2022/08/23 08:56:52;;;;;;;3.83;3.72;;;32.10;93.90;;;;;;5017626;28;20603;-54
2022/08/23 08:59:23;;;;;;;4.22;4.13;;;31.50;93.70;;;;;;5012617;28;20191;-54
2022/08/23 09:01:51;;;;;;;5.20;4.97;;;31.80;92.90;;;;;;5025305;28;20699;-54
2022/08/23 09:04:21;;;;;;;4.68;4.40;;;31.80;93.00;;;;;;5030531;28;20201;-54
2022/08/23 09:06:58;;;;;;;4.00;3.90;;;31.90;93.50;;;;;;5030683;28;20219;-54
2022/08/23 09:09:42;;;;;;;4.10;3.92;;;31.70;91.80;;;;;;5030401;28;20248;-54
2022/08/23 09:12:18;;;;;;;4.00;3.70;;;32.20;91.10;;;;;;5028416;28;20227;-54
2022/08/23 09:15:12;;;;;;;3.40;3.30;;;31.90;92.90;;;;;;5021359;28;20218;-54
2022/08/23 09:17:44;;;;;;;3.40;3.20;;;32.20;90.90;;;;;;5016210;28;20257;-55
2022/08/23 09:20:14;;;;;;;4.47;4.28;;;33.00;90.70;;;;;;5012150;28;20242;-54
2022/08/23 09:22:44;;;;;;;3.42;3.33;;;32.80;90.40;;;;;;5016203;28;20249;-55
2022/08/23 09:25:13;;;;;;;3.50;3.30;;;33.20;87.70;;;;;;5014498;28;20558;-54
2022/08/23 09:27:42;;;;;;;4.07;3.80;;;33.20;91.40;;;;;;5030758;28;20664;-55
2022/08/23 09:30:12;;;;;;;3.80;3.70;;;32.10;88.60;;;;;;5030708;28;20221;-54
2022/08/23 09:32:42;;;;;;;5.88;3.53;;;32.40;89.50;;;;;;5012508;28;20239;-54
2022/08/23 09:35:16;;;;;;;5.22;4.82;;;32.60;90.70;;;;;;5014743;28;20242;-54
2022/08/23 09:37:56;;;;;;;4.35;4.15;;;32.20;93.50;;;;;;5027738;28;20695;-55
2022/08/23 09:40:32;;;;;;;5.43;5.03;;;32.10;93.80;;;;;;5012088;28;20207;-54
2022/08/23 09:43:14;;;;;;;5.75;5.32;;;32.40;93.60;;;;;;5017525;28;20202;-54
2022/08/23 09:45:54;;;;;;;5.35;5.15;;;32.20;95.60;;;;;;5019406;28;20264;-54
2022/08/23 09:48:36;;;;;;;6.07;5.85;;;32.30;93.90;;;;;;5022221;28;20199;-55
2022/08/23 09:51:08;;;;;;;6.15;5.78;;;31.30;96.70;;;;;;5011842;28;20195;-54
2022/08/23 09:53:36;;;;;;;6.63;5.95;;;30.80;97.20;;;;;;5022628;28;20202;-54
2022/08/23 09:56:13;;;;;;;7.15;6.43;;;30.70;97.60;;;;;;5029586;28;20225;-54
2022/08/23 09:58:42;;;;;;;5.25;4.85;;;30.40;97.90;;;;;;5030301;28;20198;-54
2022/08/23 10:01:13;;;;;;;5.88;5.20;;;30.60;96.60;;;;;;5030136;28;20248;-54
2022/08/23 10:03:43;;;;;;;4.90;4.60;;;30.90;96.60;;;;;;5030888;28;20202;-54
2022/08/23 10:06:14;;;;;;;8.88;5.65;;;31.30;96.00;;;;;;5017890;28;20219;-54
2022/08/23 10:08:54;;;;;;;22.98;6.20;;;30.70;95.60;;;;;;5012236;28;20298;-54
2022/08/23 10:11:26;;;;;;;4.93;4.57;;;31.00;98.40;;;;;;5022575;28;20214;-54
2022/08/23 10:13:53;;;;;;;3.60;3.50;;;31.20;95.20;;;;;;5011845;28;20203;-54
2022/08/23 10:16:29;;;;;;;3.45;3.35;;;31.30;94.00;;;;;;5014071;28;20278;-54
2022/08/23 10:19:06;;;;;;;4.60;4.40;;;31.30;95.80;;;;;;5030133;28;20260;-54
2022/08/23 10:21:39;;;;;;;3.63;3.53;;;30.80;94.50;;;;;;5030969;28;20264;-54
2022/08/23 10:24:23;;;;;;;4.00;3.90;;;31.00;96.10;;;;;;5022232;28;20198;-54
2022/08/23 10:29:36;;;;;;;4.35;4.07;;;31.50;96.90;;;;;;5027435;28;20226;-54
2022/08/23 10:30:03;;;;;;;3.78;3.58;;;31.80;95.60;;;;;;5030744;28;20216;-54
2022/08/23 10:32:45;;;;;;;3.33;3.13;;;31.10;95.00;;;;;;5026284;28;20209;-54
2022/08/23 10:35:31;;;;;;;3.40;3.25;;;31.20;94.00;;;;;;5020002;28;20237;-54
2022/08/23 10:38:31;;;;;;;4.20;3.90;;;31.20;94.50;;;;;;5012690;28;20234;-54
2022/08/23 10:41:08;;;;;;;4.47;3.85;;;31.70;93.70;;;;;;4991278;28;20510;-54
2022/08/23 10:43:47;;;;;;;3.67;3.47;;;31.50;95.00;;;;;;5018090;28;20281;-54
2022/08/23 10:46:14;;;;;;;3.72;3.20;;;31.20;93.90;;;;;;5018521;28;21162;-54
2022/08/23 10:48:50;;;;;;;3.47;3.08;;;30.80;93.00;;;;;;5023345;28;20656;-54
2022/08/23 10:51:24;;;;;;;3.72;3.63;;;31.20;92.90;;;;;;5023176;28;20194;-54
2022/08/23 10:53:58;;;;;;;3.75;3.55;;;30.70;94.40;;;;;;5022649;28;20209;-55
2022/08/23 10:56:26;;;;;;;3.72;3.42;;;29.60;94.40;;;;;;5027708;28;20229;-54
2022/08/23 10:58:57;;;;;;;3.55;3.45;;;29.40;95.30;;;;;;5022129;28;20238;-54
2022/08/23 11:01:34;;;;;;;3.38;3.20;;;28.90;95.10;;;;;;5028863;28;20635;-54
2022/08/23 11:04:05;;;;;;;3.45;3.35;;;28.50;96.10;;;;;;5021495;28;20194;-55
2022/08/23 11:06:47;;;;;;;3.58;3.42;;;28.00;96.30;;;;;;5028011;28;20218;-54
2022/08/23 11:09:53;;;;;;;5.78;3.38;;;27.60;98.60;;;;;;5027700;28;20203;-54
2022/08/23 11:12:27;;;;;;;3.17;3.08;;;27.60;96.90;;;;;;4978760;28;20295;-54
2022/08/23 11:15:18;;;;;;;3.35;2.97;;;27.60;98.10;;;;;;5024326;28;20238;-54
2022/08/23 11:18:06;;;;;;;2.95;2.85;;;27.40;98.60;;;;;;5033476;28;20691;-54
2022/08/23 11:21:04;;;;;;;5.55;3.17;;;27.30;98.60;;;;;;5031575;28;20202;-54
2022/08/23 11:23:53;;;;;;;3.38;3.15;;;27.20;99.00;;;;;;5030191;28;20245;-54
2022/08/23 11:27:05;;;;;;;2.95;2.85;;;27.30;97.40;;;;;;5033598;28;20218;-54
2022/08/23 11:29:35;;;;;;;3.40;3.20;;;27.00;98.60;;;;;;5028957;28;20214;-54
2022/08/23 11:32:36;;;;;;;3.88;3.17;;;27.10;99.80;;;;;;5026931;28;20543;-54
2022/08/23 11:35:11;;;;;;;2.70;2.55;;;26.80;97.20;;;;;;4979504;28;20229;-54
2022/08/23 11:37:58;;;;;;;2.65;2.55;;;26.80;99.00;;;;;;5029527;28;20256;-53
2022/08/23 11:40:42;;;;;;;3.55;3.35;;;26.90;97.90;;;;;;5014602;28;20203;-54
2022/08/23 11:43:13;;;;;;;3.10;2.92;;;26.90;97.20;;;;;;5030250;28;20358;-54
2022/08/23 11:45:46;;;;;;;3.55;2.17;;;26.80;97.50;;;;;;5019944;28;20281;-53
2022/08/23 11:48:19;;;;;;;2.40;2.30;;;27.00;97.00;;;;;;5014083;28;20245;-54
2022/08/23 11:51:01;;;;;;;2.47;2.35;;;26.90;97.10;;;;;;5013770;28;20272;-54
2022/08/23 11:54:08;;;;;;;3.57;2.90;;;26.80;98.80;;;;;;5017323;28;20266;-53
2022/08/23 11:56:51;;;;;;;2.87;2.70;;;26.60;98.60;;;;;;4952445;28;20328;-54
2022/08/23 11:59:34;;;;;;;2.88;2.78;;;26.40;97.60;;;;;;5022176;28;20343;-54
2022/08/23 12:02:40;;;;;;;3.00;2.75;;;26.60;99.30;;;;;;5015688;28;20725;-54
2022/08/23 12:05:36;;;;;;;3.40;3.13;;;26.60;99.10;;;;;;5012143;28;20241;-54
2022/08/23 12:08:40;;;;;;;2.43;2.33;;;26.50;98.90;;;;;;5020673;28;20545;-54
2022/08/23 12:11:10;;;;;;;2.37;2.27;;;26.30;99.00;;;;;;5022957;28;20757;-54
2022/08/23 12:13:57;;;;;;;2.30;2.10;;;26.20;98.50;;;;;;5023682;28;20269;-53
2022/08/23 12:16:36;;;;;;;2.72;2.53;;;26.50;97.80;;;;;;5018084;28;20234;-54
2022/08/23 12:19:24;;;;;;;1.97;1.87;;;26.60;99.60;;;;;;5013392;28;20668;-54
2022/08/23 12:21:54;;;;;;;1.60;1.58;;;26.80;96.20;;;;;;5013777;28;20257;-54
2022/08/23 12:24:29;;;;;;;2.25;1.95;;;26.90;97.00;;;;;;5013744;28;20261;-54
2022/08/23 12:27:08;;;;;;;1.30;1.30;;;26.90;97.80;;;;;;5015774;28;20230;-54
2022/08/23 12:29:48;;;;;;;2.25;2.08;;;26.70;94.70;;;;;;5028955;28;20271;-54
2022/08/23 12:32:21;;;;;;;1.63;1.60;;;26.40;96.40;;;;;;5024725;28;20221;-54
2022/08/23 12:35:00;;;;;;;1.58;1.55;;;26.30;94.60;;;;;;5017992;28;20246;-56
2022/08/23 12:37:36;;;;;;;2.05;1.95;;;26.50;97.20;;;;;;5025234;28;20199;-54
2022/08/23 12:40:08;;;;;;;1.83;1.73;;;26.50;95.00;;;;;;5016683;28;20198;-54
2022/08/23 12:42:37;;;;;;;2.10;2.00;;;26.50;97.10;;;;;;5013159;28;20239;-54
2022/08/23 12:45:12;;;;;;;2.25;2.10;;;26.40;96.90;;;;;;5013248;28;20223;-54
2022/08/23 12:47:42;;;;;;;2.40;2.13;;;26.50;96.00;;;;;;5013378;28;20199;-54
2022/08/23 12:50:19;;;;;;;2.90;2.10;;;26.40;96.70;;;;;;5021100;28;20234;-53
2022/08/23 12:52:56;;;;;;;1.83;1.73;;;26.40;96.70;;;;;;5021173;28;20234;-54
2022/08/23 12:55:23;;;;;;;2.60;1.67;;;26.40;97.50;;;;;;5023516;28;20214;-54
2022/08/23 12:57:54;;;;;;;2.17;2.07;;;26.40;97.60;;;;;;5030942;28;20707;-54
2022/08/23 13:00:24;;;;;;;1.42;1.42;;;26.40;97.30;;;;;;5030668;28;20665;-54
2022/08/23 13:02:57;;;;;;;2.33;2.17;;;26.40;95.50;;;;;;5016890;28;20261;-54
2022/08/23 13:05:47;;;;;;;2.17;2.00;;;26.50;95.40;;;;;;5018695;28;20219;-54
2022/08/23 13:08:19;;;;;;;1.95;1.90;;;26.40;96.00;;;;;;5021026;28;20203;-54
2022/08/23 13:10:47;;;;;;;1.33;1.33;;;26.40;95.60;;;;;;5012584;28;20250;-55
2022/08/23 13:13:19;;;;;;;4.55;2.00;;;26.30;94.10;;;;;;5012516;28;20206;-54
2022/08/23 13:15:51;;;;;;;1.50;1.50;;;26.40;96.10;;;;;;5017727;28;20238;-54
2022/08/23 13:18:30;;;;;;;1.63;1.52;;;26.50;96.10;;;;;;5028830;28;20804;-53